Time,TemperatureF,DewpointF,PressureIn,WindDirection,WindDirectionDegrees,WindSpeedMPH,WindSpeedGustMPH,Humidity,HourlyPrecipIn,Conditions,Clouds,dailyrainin,SoftwareType,DateUTC
2013-10-29 00:01:00,30.6,21.3,30.39,NNE,13,0.0,0.0,68,0.00,,,0.02,Wunderground v.1.15,2013-10-29 04:01:00,
2013-10-29 00:02:00,30.6,21.6,30.39,NNE,13,0.0,0.0,69,0.00,,,0.02,Wunderground v.1.15,2013-10-29 04:02:00,
2013-10-29 00:03:00,30.6,21.6,30.39,NNE,13,0.0,0.0,69,0.00,,,0.02,Wunderground v.1.15,2013-10-29 04:03:00,
2013-10-29 00:09:00,30.9,22.3,30.39,NNE,13,2.0,2.0,70,0.00,,,0.02,Wunderground v.1.15,2013-10-29 04:09:00,
2013-10-29 00:12:00,31.3,22.6,30.39,NNE,13,3.0,3.0,70,0.00,,,0.02,Wunderground v.1.15,2013-10-29 04:12:00,
2013-10-29 00:18:00,31.8,22.4,30.39,NNE,15,3.0,4.0,68,0.00,,,0.02,Wunderground v.1.15,2013-10-29 04:18:00,
2013-10-29 00:20:00,31.9,22.5,30.39,NNE,31,5.0,5.0,68,0.00,,,0.02,Wunderground v.1.15,2013-10-29 04:20:00,
2013-10-29 00:26:00,32.1,22.7,30.39,NE,51,5.0,5.0,68,0.00,,,0.02,Wunderground v.1.15,2013-10-29 04:26:00,
2013-10-29 00:31:00,32.4,22.7,30.38,NE,45,6.0,6.0,67,0.00,,,0.02,Wunderground v.1.15,2013-10-29 04:31:00,
2013-10-29 00:34:00,32.5,22.4,30.38,NE,44,2.0,6.0,66,0.00,,,0.02,Wunderground v.1.15,2013-10-29 04:34:00,
2013-10-29 00:40:00,32.7,22.6,30.38,NE,40,4.0,4.0,66,0.00,,,0.02,Wunderground v.1.15,2013-10-29 04:40:00,
2013-10-29 00:46:00,32.8,22.7,30.39,NE,38,5.0,5.0,66,0.00,,,0.02,Wunderground v.1.15,2013-10-29 04:46:00,
2013-10-29 00:51:00,32.5,22.4,30.39,NE,38,2.0,3.0,66,0.00,,,0.02,Wunderground v.1.15,2013-10-29 04:51:00,
2013-10-29 00:57:00,32.2,22.5,30.39,NE,38,1.0,3.0,67,0.00,,,0.02,Wunderground v.1.15,2013-10-29 04:57:00,
2013-10-29 01:03:00,31.8,22.1,30.39,NE,38,2.0,2.0,67,0.00,,,0.02,Wunderground v.1.15,2013-10-29 05:03:00,
2013-10-29 01:08:00,31.6,22.2,30.39,NE,38,1.0,4.0,68,0.00,,,0.02,Wunderground v.1.15,2013-10-29 05:08:00,
2013-10-29 01:14:00,31.8,22.4,30.40,NE,38,1.0,3.0,68,0.00,,,0.02,Wunderground v.1.15,2013-10-29 05:14:00,
2013-10-29 01:20:00,31.6,22.2,30.40,NE,38,1.0,2.0,68,0.00,,,0.02,Wunderground v.1.15,2013-10-29 05:20:00,
2013-10-29 01:25:00,31.5,22.1,30.40,NE,38,0.0,2.0,68,0.00,,,0.02,Wunderground v.1.15,2013-10-29 05:25:00,
2013-10-29 01:30:00,31.0,22.0,30.40,NE,38,0.0,0.0,69,0.00,,,0.02,Wunderground v.1.15,2013-10-29 05:30:00,
2013-10-29 01:36:00,31.2,22.2,30.40,NE,38,2.0,3.0,69,0.00,,,0.02,Wunderground v.1.15,2013-10-29 05:36:00,
2013-10-29 01:41:00,31.3,22.0,30.40,NE,38,2.0,3.0,68,0.00,,,0.02,Wunderground v.1.15,2013-10-29 05:41:00,
2013-10-29 01:47:00,31.3,22.0,30.40,NE,38,1.0,3.0,68,0.00,,,0.02,Wunderground v.1.15,2013-10-29 05:47:00,
2013-10-29 01:53:00,31.5,22.1,30.40,NE,38,3.0,3.0,68,0.00,,,0.02,Wunderground v.1.15,2013-10-29 05:53:00,
2013-10-29 01:58:00,31.3,22.0,30.40,NE,38,0.0,3.0,68,0.00,,,0.02,Wunderground v.1.15,2013-10-29 05:58:00,
2013-10-29 02:03:00,31.2,22.2,30.40,NE,38,0.0,1.0,69,0.00,,,0.02,Wunderground v.1.15,2013-10-29 06:03:00,
2013-10-29 02:08:00,30.7,22.1,30.40,NE,38,0.0,2.0,70,0.00,,,0.02,Wunderground v.1.15,2013-10-29 06:08:00,
2013-10-29 02:13:00,30.3,22.0,30.40,NE,38,0.0,1.0,71,0.00,,,0.02,Wunderground v.1.15,2013-10-29 06:13:00,
2013-10-29 02:18:00,30.0,22.1,30.40,NE,38,0.0,1.0,72,0.00,,,0.02,Wunderground v.1.15,2013-10-29 06:18:00,
2013-10-29 02:23:00,29.8,21.9,30.40,NE,38,0.0,0.0,72,0.00,,,0.02,Wunderground v.1.15,2013-10-29 06:23:00,
2013-10-29 02:28:00,29.8,22.2,30.40,NE,38,0.0,0.0,73,0.00,,,0.02,Wunderground v.1.15,2013-10-29 06:28:00,
2013-10-29 02:34:00,29.5,21.9,30.40,NE,38,0.0,0.0,73,0.00,,,0.02,Wunderground v.1.15,2013-10-29 06:34:00,
2013-10-29 02:39:00,29.4,22.1,30.40,NE,38,0.0,0.0,74,0.00,,,0.02,Wunderground v.1.15,2013-10-29 06:39:00,
2013-10-29 02:44:00,29.4,22.1,30.41,NE,38,0.0,0.0,74,0.00,,,0.02,Wunderground v.1.15,2013-10-29 06:44:00,
2013-10-29 02:49:00,29.4,22.1,30.41,NE,38,0.0,0.0,74,0.00,,,0.02,Wunderground v.1.15,2013-10-29 06:49:00,
2013-10-29 02:54:00,29.4,22.5,30.41,NE,38,0.0,1.0,75,0.00,,,0.02,Wunderground v.1.15,2013-10-29 06:54:00,
2013-10-29 02:59:00,29.3,22.4,30.41,NE,38,0.0,1.0,75,0.00,,,0.02,Wunderground v.1.15,2013-10-29 06:59:00,
2013-10-29 03:04:00,29.1,22.2,30.41,NE,38,0.0,0.0,75,0.00,,,0.02,Wunderground v.1.15,2013-10-29 07:04:00,
2013-10-29 03:09:00,29.1,22.5,30.41,NE,38,0.0,0.0,76,0.00,,,0.02,Wunderground v.1.15,2013-10-29 07:09:00,
2013-10-29 03:14:00,29.1,22.5,30.41,NE,38,0.0,1.0,76,0.00,,,0.02,Wunderground v.1.15,2013-10-29 07:14:00,
2013-10-29 03:20:00,29.0,22.4,30.41,NE,38,0.0,0.0,76,0.00,,,0.02,Wunderground v.1.15,2013-10-29 07:20:00,
2013-10-29 03:25:00,29.0,22.4,30.41,NE,38,0.0,0.0,76,0.00,,,0.02,Wunderground v.1.15,2013-10-29 07:25:00,
2013-10-29 03:30:00,28.8,22.2,30.41,NE,38,0.0,0.0,76,0.00,,,0.02,Wunderground v.1.15,2013-10-29 07:30:00,
2013-10-29 03:35:00,28.7,22.4,30.41,NE,38,0.0,1.0,77,0.00,,,0.02,Wunderground v.1.15,2013-10-29 07:35:00,
2013-10-29 03:40:00,28.7,22.4,30.41,NE,38,0.0,0.0,77,0.00,,,0.02,Wunderground v.1.15,2013-10-29 07:40:00,
2013-10-29 03:45:00,28.5,22.2,30.41,NE,38,0.0,0.0,77,0.00,,,0.02,Wunderground v.1.15,2013-10-29 07:45:00,
2013-10-29 03:50:00,28.7,22.4,30.41,NE,38,0.0,0.0,77,0.00,,,0.02,Wunderground v.1.15,2013-10-29 07:50:00,
2013-10-29 03:55:00,29.0,22.4,30.41,NE,38,0.0,0.0,76,0.00,,,0.02,Wunderground v.1.15,2013-10-29 07:55:00,
2013-10-29 04:00:00,29.0,22.4,30.41,NE,38,0.0,0.0,76,0.00,,,0.02,Wunderground v.1.15,2013-10-29 08:00:00,
2013-10-29 04:05:00,28.8,21.9,30.41,NE,38,0.0,0.0,75,0.00,,,0.02,Wunderground v.1.15,2013-10-29 08:05:00,
2013-10-29 04:10:00,29.0,22.1,30.41,NE,38,0.0,0.0,75,0.00,,,0.02,Wunderground v.1.15,2013-10-29 08:10:00,
2013-10-29 04:15:00,28.8,21.9,30.41,NE,38,0.0,0.0,75,0.00,,,0.02,Wunderground v.1.15,2013-10-29 08:15:00,
2013-10-29 04:20:00,28.8,22.2,30.41,NE,38,0.0,0.0,76,0.00,,,0.02,Wunderground v.1.15,2013-10-29 08:20:00,
2013-10-29 04:25:00,28.8,21.9,30.41,NE,38,0.0,0.0,75,0.00,,,0.02,Wunderground v.1.15,2013-10-29 08:25:00,
2013-10-29 04:30:00,28.7,21.8,30.41,NE,38,0.0,0.0,75,0.00,,,0.02,Wunderground v.1.15,2013-10-29 08:30:00,
2013-10-29 04:35:00,28.5,21.9,30.41,NE,38,0.0,0.0,76,0.00,,,0.02,Wunderground v.1.15,2013-10-29 08:35:00,
2013-10-29 04:40:00,28.2,21.6,30.41,NE,38,0.0,0.0,76,0.00,,,0.02,Wunderground v.1.15,2013-10-29 08:40:00,
2013-10-29 04:45:00,27.9,21.6,30.42,NE,38,0.0,0.0,77,0.00,,,0.02,Wunderground v.1.15,2013-10-29 08:45:00,
2013-10-29 04:51:00,27.8,21.5,30.42,NE,38,0.0,0.0,77,0.00,,,0.02,Wunderground v.1.15,2013-10-29 08:51:00,
2013-10-29 04:56:00,27.3,21.0,30.42,NE,38,0.0,1.0,77,0.00,,,0.02,Wunderground v.1.15,2013-10-29 08:56:00,
2013-10-29 05:01:00,27.0,21.1,30.42,NE,38,1.0,1.0,78,0.00,,,0.02,Wunderground v.1.15,2013-10-29 09:01:00,
2013-10-29 05:06:00,26.7,21.1,30.42,NE,38,0.0,1.0,79,0.00,,,0.02,Wunderground v.1.15,2013-10-29 09:06:00,
2013-10-29 05:11:00,26.6,21.0,30.42,NE,38,0.0,0.0,79,0.00,,,0.02,Wunderground v.1.15,2013-10-29 09:11:00,
2013-10-29 05:16:00,26.6,21.3,30.43,NE,38,0.0,1.0,80,0.00,,,0.02,Wunderground v.1.15,2013-10-29 09:16:00,
2013-10-29 05:21:00,26.4,21.1,30.43,NE,38,0.0,0.0,80,0.00,,,0.02,Wunderground v.1.15,2013-10-29 09:21:00,
2013-10-29 05:26:00,26.4,21.4,30.43,NE,38,0.0,0.0,81,0.00,,,0.02,Wunderground v.1.15,2013-10-29 09:26:00,
2013-10-29 05:31:00,26.4,21.4,30.43,NE,38,0.0,0.0,81,0.00,,,0.02,Wunderground v.1.15,2013-10-29 09:31:00,
2013-10-29 05:36:00,26.4,21.4,30.43,NE,38,0.0,0.0,81,0.00,,,0.02,Wunderground v.1.15,2013-10-29 09:36:00,
2013-10-29 05:41:00,26.3,21.3,30.43,NE,38,0.0,0.0,81,0.00,,,0.02,Wunderground v.1.15,2013-10-29 09:41:00,
2013-10-29 05:46:00,26.1,21.1,30.43,NE,38,0.0,1.0,81,0.00,,,0.00,Wunderground v.1.15,2013-10-29 09:46:00,
2013-10-29 05:51:00,25.8,20.8,30.43,NE,38,0.0,0.0,81,0.00,,,0.00,Wunderground v.1.15,2013-10-29 09:51:00,
2013-10-29 05:56:00,25.6,20.9,30.43,NE,38,0.0,0.0,82,0.00,,,0.00,Wunderground v.1.15,2013-10-29 09:56:00,
2013-10-29 06:01:00,25.4,20.7,30.44,NE,38,0.0,0.0,82,0.00,,,0.00,Wunderground v.1.15,2013-10-29 10:01:00,
2013-10-29 06:06:00,25.3,20.6,30.44,NE,38,0.0,0.0,82,0.00,,,0.00,Wunderground v.1.15,2013-10-29 10:06:00,
2013-10-29 06:11:00,25.0,20.6,30.44,NE,38,0.0,0.0,83,0.00,,,0.00,Wunderground v.1.15,2013-10-29 10:11:00,
2013-10-29 06:16:00,25.0,20.6,30.45,NE,38,0.0,0.0,83,0.00,,,0.00,Wunderground v.1.15,2013-10-29 10:16:00,
2013-10-29 06:21:00,25.1,20.9,30.45,NE,38,0.0,0.0,84,0.00,,,0.00,Wunderground v.1.15,2013-10-29 10:21:00,
2013-10-29 06:26:00,25.0,20.8,30.45,NE,38,0.0,0.0,84,0.00,,,0.00,Wunderground v.1.15,2013-10-29 10:26:00,
2013-10-29 06:31:00,25.0,20.8,30.45,NE,38,0.0,0.0,84,0.00,,,0.00,Wunderground v.1.15,2013-10-29 10:31:00,
2013-10-29 06:36:00,25.0,20.8,30.45,NE,38,1.0,2.0,84,0.00,,,0.00,Wunderground v.1.15,2013-10-29 10:36:00,
2013-10-29 06:41:00,25.0,20.8,30.45,NE,38,0.0,1.0,84,0.00,,,0.00,Wunderground v.1.15,2013-10-29 10:41:00,
2013-10-29 06:46:00,24.7,20.6,30.45,NE,38,0.0,1.0,84,0.00,,,0.00,Wunderground v.1.15,2013-10-29 10:46:00,
2013-10-29 06:51:00,24.8,20.9,30.45,NE,38,0.0,0.0,85,0.00,,,0.00,Wunderground v.1.15,2013-10-29 10:51:00,
2013-10-29 06:56:00,25.6,21.7,30.45,NE,38,3.0,4.0,85,0.00,,,0.00,Wunderground v.1.15,2013-10-29 10:56:00,
2013-10-29 07:01:00,25.8,21.6,30.45,NE,39,0.0,5.0,84,0.00,,,0.00,Wunderground v.1.15,2013-10-29 11:01:00,
2013-10-29 07:06:00,26.0,21.8,30.45,NE,40,2.0,5.0,84,0.00,,,0.00,Wunderground v.1.15,2013-10-29 11:06:00,
2013-10-29 07:11:00,26.0,21.5,30.45,NE,40,0.0,2.0,83,0.00,,,0.00,Wunderground v.1.15,2013-10-29 11:11:00,
2013-10-29 07:16:00,25.7,21.3,30.45,NE,40,0.0,2.0,83,0.00,,,0.00,Wunderground v.1.15,2013-10-29 11:16:00,
2013-10-29 07:21:00,25.6,21.2,30.45,NE,40,0.0,0.0,83,0.00,,,0.00,Wunderground v.1.15,2013-10-29 11:21:00,
2013-10-29 07:26:00,25.6,21.2,30.45,NE,40,0.0,1.0,83,0.00,,,0.00,Wunderground v.1.15,2013-10-29 11:26:00,
2013-10-29 07:31:00,25.4,21.0,30.45,NE,40,0.0,0.0,83,0.00,,,0.00,Wunderground v.1.15,2013-10-29 11:31:00,
2013-10-29 07:36:00,25.1,20.7,30.45,NE,40,0.0,0.0,83,0.00,,,0.00,Wunderground v.1.15,2013-10-29 11:36:00,
2013-10-29 07:41:00,24.8,20.4,30.45,NE,40,0.0,0.0,83,0.00,,,0.00,Wunderground v.1.15,2013-10-29 11:41:00,
2013-10-29 07:47:00,24.5,20.4,30.46,NE,40,0.0,0.0,84,0.00,,,0.00,Wunderground v.1.15,2013-10-29 11:47:00,
2013-10-29 07:52:00,24.2,20.1,30.46,NE,40,0.0,0.0,84,0.00,,,0.00,Wunderground v.1.15,2013-10-29 11:52:00,
2013-10-29 07:57:00,24.1,20.2,30.46,NE,40,0.0,0.0,85,0.00,,,0.00,Wunderground v.1.15,2013-10-29 11:57:00,
2013-10-29 08:02:00,24.1,20.2,30.47,NE,40,0.0,0.0,85,0.00,,,0.00,Wunderground v.1.15,2013-10-29 12:02:00,
2013-10-29 08:07:00,24.1,20.2,30.47,NE,40,0.0,0.0,85,0.00,,,0.00,Wunderground v.1.15,2013-10-29 12:07:00,
2013-10-29 08:12:00,24.2,20.3,30.47,NE,40,0.0,0.0,85,0.00,,,0.00,Wunderground v.1.15,2013-10-29 12:12:00,
2013-10-29 08:17:00,24.8,21.2,30.48,NE,40,0.0,0.0,86,0.00,,,0.00,Wunderground v.1.15,2013-10-29 12:17:00,
2013-10-29 08:22:00,25.3,21.7,30.48,NE,40,0.0,0.0,86,0.00,,,0.00,Wunderground v.1.15,2013-10-29 12:22:00,
2013-10-29 08:27:00,25.8,21.9,30.48,NE,40,0.0,0.0,85,0.00,,,0.00,Wunderground v.1.15,2013-10-29 12:27:00,
2013-10-29 08:32:00,26.9,23.0,30.48,NE,40,0.0,0.0,85,0.00,,,0.00,Wunderground v.1.15,2013-10-29 12:32:00,
2013-10-29 08:37:00,27.6,23.4,30.48,NE,40,0.0,0.0,84,0.00,,,0.00,Wunderground v.1.15,2013-10-29 12:37:00,
2013-10-29 08:42:00,28.4,24.2,30.48,NE,40,0.0,1.0,84,0.00,,,0.00,Wunderground v.1.15,2013-10-29 12:42:00,
2013-10-29 08:47:00,29.3,24.5,30.48,NE,40,0.0,1.0,82,0.00,,,0.00,Wunderground v.1.15,2013-10-29 12:47:00,
2013-10-29 08:52:00,29.8,24.7,30.48,NE,40,0.0,3.0,81,0.00,,,0.00,Wunderground v.1.15,2013-10-29 12:52:00,
2013-10-29 08:57:00,30.1,24.1,30.48,NE,40,2.0,4.0,78,0.00,,,0.00,Wunderground v.1.15,2013-10-29 12:57:00,
2013-10-29 09:02:00,30.3,23.6,30.48,NE,42,4.0,5.0,76,0.00,,,0.00,Wunderground v.1.15,2013-10-29 13:02:00,
2013-10-29 09:07:00,30.7,23.7,30.48,NE,44,4.0,5.0,75,0.00,,,0.00,Wunderground v.1.15,2013-10-29 13:07:00,
2013-10-29 09:12:00,30.6,23.3,30.48,NE,44,0.0,4.0,74,0.00,,,0.00,Wunderground v.1.15,2013-10-29 13:12:00,
2013-10-29 09:17:00,30.9,23.6,30.48,NE,44,0.0,4.0,74,0.00,,,0.00,Wunderground v.1.15,2013-10-29 13:17:00,
2013-10-29 09:22:00,31.5,24.2,30.48,NE,44,0.0,1.0,74,0.00,,,0.00,Wunderground v.1.15,2013-10-29 13:22:00,
2013-10-29 09:27:00,32.1,24.7,30.48,NE,44,0.0,1.0,74,0.00,,,0.00,Wunderground v.1.15,2013-10-29 13:27:00,
2013-10-29 09:32:00,32.5,25.1,30.48,NE,44,0.0,0.0,74,0.00,,,0.00,Wunderground v.1.15,2013-10-29 13:32:00,
2013-10-29 09:38:00,33.1,25.4,30.48,NE,44,0.0,0.0,73,0.00,,,0.00,Wunderground v.1.15,2013-10-29 13:38:00,
2013-10-29 09:43:00,33.8,26.1,30.48,NE,44,0.0,0.0,73,0.00,,,0.00,Wunderground v.1.15,2013-10-29 13:43:00,
2013-10-29 09:48:00,34.3,26.5,30.49,NE,44,0.0,2.0,73,0.00,,,0.00,Wunderground v.1.15,2013-10-29 13:48:00,
2013-10-29 09:54:00,34.4,26.3,30.49,NE,44,0.0,3.0,72,0.00,,,0.00,Wunderground v.1.15,2013-10-29 13:54:00,
2013-10-29 09:59:00,35.0,27.5,30.48,NE,44,0.0,3.0,74,0.00,,,0.00,Wunderground v.1.15,2013-10-29 13:59:00,
2013-10-29 10:04:00,35.5,27.7,30.48,NE,44,0.0,1.0,73,0.00,,,0.00,Wunderground v.1.15,2013-10-29 14:04:00,
2013-10-29 10:09:00,35.8,27.7,30.48,NE,44,1.0,3.0,72,0.00,,,0.00,Wunderground v.1.15,2013-10-29 14:09:00,
2013-10-29 10:14:00,35.9,27.4,30.47,NE,44,0.0,4.0,71,0.00,,,0.00,Wunderground v.1.15,2013-10-29 14:14:00,
2013-10-29 10:19:00,36.9,27.7,30.47,NE,34,6.0,6.0,69,0.00,,,0.00,Wunderground v.1.15,2013-10-29 14:19:00,
2013-10-29 10:24:00,37.6,28.0,30.47,NE,34,5.0,6.0,68,0.00,,,0.00,Wunderground v.1.15,2013-10-29 14:24:00,
2013-10-29 10:29:00,38.2,27.1,30.46,ENE,57,2.0,7.0,64,0.00,,,0.00,Wunderground v.1.15,2013-10-29 14:29:00,
2013-10-29 10:34:00,38.8,28.4,30.46,ENE,57,0.0,5.0,66,0.00,,,0.00,Wunderground v.1.15,2013-10-29 14:34:00,
2013-10-29 10:39:00,39.3,28.5,30.46,NNE,13,0.0,7.0,65,0.00,,,0.00,Wunderground v.1.15,2013-10-29 14:39:00,
2013-10-29 10:44:00,39.1,27.6,30.46,NNW,345,0.0,6.0,63,0.00,,,0.00,Wunderground v.1.15,2013-10-29 14:44:00,
2013-10-29 10:49:00,38.2,26.3,30.46,North,355,5.0,7.0,62,0.00,,,0.00,Wunderground v.1.15,2013-10-29 14:49:00,
2013-10-29 10:54:00,37.8,26.7,30.46,North,355,0.0,6.0,64,0.00,,,0.00,Wunderground v.1.15,2013-10-29 14:54:00,
2013-10-29 10:59:00,38.5,27.4,30.46,NNE,22,0.0,6.0,64,0.00,,,0.00,Wunderground v.1.15,2013-10-29 14:59:00,
2013-10-29 11:05:00,39.8,27.8,30.46,NE,43,5.0,6.0,62,0.00,,,0.00,Wunderground v.1.15,2013-10-29 15:05:00,
2013-10-29 11:10:00,39.5,26.8,30.46,NE,40,4.0,6.0,60,0.00,,,0.00,Wunderground v.1.15,2013-10-29 15:10:00,
2013-10-29 11:15:00,39.5,27.9,30.46,North,360,1.0,6.0,63,0.00,,,0.00,Wunderground v.1.15,2013-10-29 15:15:00,
2013-10-29 11:20:00,40.6,27.8,30.46,NNW,334,6.0,7.0,60,0.00,,,0.00,Wunderground v.1.15,2013-10-29 15:20:00,
2013-10-29 11:24:00,40.2,26.6,30.46,NNW,333,1.0,4.0,58,0.00,,,0.00,Wunderground v.1.15,2013-10-29 15:24:00,
2013-10-29 11:29:00,39.5,25.9,30.46,NNE,17,3.0,7.0,58,0.00,,,0.00,Wunderground v.1.15,2013-10-29 15:29:00,
2013-10-29 11:34:00,39.6,26.4,30.46,North,5,0.0,10.0,59,0.00,,,0.00,Wunderground v.1.15,2013-10-29 15:34:00,
2013-10-29 11:39:00,39.9,26.3,30.46,NNE,15,1.0,10.0,58,0.00,,,0.00,Wunderground v.1.15,2013-10-29 15:39:00,
2013-10-29 11:45:00,40.8,26.7,30.46,NE,40,2.0,6.0,57,0.00,,,0.00,Wunderground v.1.15,2013-10-29 15:45:00,
2013-10-29 11:49:00,41.1,26.6,30.46,NE,36,2.0,6.0,56,0.00,,,0.00,Wunderground v.1.15,2013-10-29 15:49:00,
2013-10-29 11:54:00,42.2,28.5,30.46,North,5,0.0,7.0,58,0.00,,,0.00,Wunderground v.1.15,2013-10-29 15:54:00,
2013-10-29 12:00:00,43.1,28.5,30.46,North,360,3.0,3.0,56,0.00,,,0.00,Wunderground v.1.15,2013-10-29 16:00:00,
2013-10-29 12:05:00,41.9,28.2,30.46,NNW,340,0.0,6.0,58,0.00,,,0.00,Wunderground v.1.15,2013-10-29 16:05:00,
2013-10-29 12:10:00,41.6,26.2,30.46,NNW,346,0.0,2.0,54,0.00,,,0.00,Wunderground v.1.15,2013-10-29 16:10:00,
2013-10-29 12:15:00,41.5,27.0,30.46,North,349,0.0,7.0,56,0.00,,,0.00,Wunderground v.1.15,2013-10-29 16:15:00,
2013-10-29 12:20:00,41.2,25.8,30.46,North,349,0.0,1.0,54,0.00,,,0.00,Wunderground v.1.15,2013-10-29 16:20:00,
2013-10-29 12:25:00,41.5,25.6,30.46,North,349,0.0,1.0,53,0.00,,,0.00,Wunderground v.1.15,2013-10-29 16:25:00,
2013-10-29 12:30:00,41.1,27.0,30.45,NNW,348,4.0,4.0,57,0.00,,,0.00,Wunderground v.1.15,2013-10-29 16:30:00,
2013-10-29 12:35:00,41.2,26.2,30.45,North,355,1.0,6.0,55,0.00,,,0.00,Wunderground v.1.15,2013-10-29 16:35:00,
2013-10-29 12:40:00,42.2,26.7,30.45,North,351,0.0,2.0,54,0.00,,,0.00,Wunderground v.1.15,2013-10-29 16:40:00,
2013-10-29 12:45:00,42.2,27.2,30.44,North,351,2.0,3.0,55,0.00,,,0.00,Wunderground v.1.15,2013-10-29 16:45:00,
2013-10-29 12:50:00,42.6,26.6,30.44,NE,42,4.0,4.0,53,0.00,,,0.00,Wunderground v.1.15,2013-10-29 16:50:00,
2013-10-29 12:55:00,43.3,26.8,30.44,ENE,75,1.0,9.0,52,0.00,,,0.00,Wunderground v.1.15,2013-10-29 16:55:00,
2013-10-29 13:00:00,44.3,26.8,30.44,ENE,76,0.0,4.0,50,0.00,,,0.00,Wunderground v.1.15,2013-10-29 17:00:00,
2013-10-29 13:05:00,44.1,25.6,30.44,ENE,76,0.0,4.0,48,0.00,,,0.00,Wunderground v.1.15,2013-10-29 17:05:00,
2013-10-29 13:10:00,43.6,27.1,30.44,North,5,1.0,3.0,52,0.00,,,0.00,Wunderground v.1.15,2013-10-29 17:10:00,
2013-10-29 13:15:00,43.9,26.9,30.43,North,355,1.0,6.0,51,0.00,,,0.00,Wunderground v.1.15,2013-10-29 17:15:00,
2013-10-29 13:20:00,44.5,25.5,30.43,NNW,346,0.0,5.0,47,0.00,,,0.00,Wunderground v.1.15,2013-10-29 17:20:00,
2013-10-29 13:25:00,43.3,25.9,30.43,NW,306,5.0,7.0,50,0.00,,,0.00,Wunderground v.1.15,2013-10-29 17:25:00,
2013-10-29 13:30:00,41.8,25.0,30.42,West,276,3.0,7.0,51,0.00,,,0.00,Wunderground v.1.15,2013-10-29 17:30:00,
2013-10-29 13:35:00,40.8,25.0,30.42,WSW,252,0.0,7.0,53,0.00,,,0.00,Wunderground v.1.15,2013-10-29 17:35:00,
2013-10-29 13:40:00,42.5,25.6,30.42,North,5,1.0,5.0,51,0.00,,,0.00,Wunderground v.1.15,2013-10-29 17:40:00,
2013-10-29 13:45:00,43.1,24.7,30.42,NNE,17,0.0,5.0,48,0.00,,,0.00,Wunderground v.1.15,2013-10-29 17:45:00,
2013-10-29 13:50:00,44.2,25.7,30.42,NNE,16,0.0,2.0,48,0.00,,,0.00,Wunderground v.1.15,2013-10-29 17:50:00,
2013-10-29 13:55:00,44.6,26.1,30.42,NNE,16,0.0,2.0,48,0.00,,,0.00,Wunderground v.1.15,2013-10-29 17:55:00,
2013-10-29 14:00:00,44.1,25.1,30.42,North,9,0.0,1.0,47,0.00,,,0.00,Wunderground v.1.15,2013-10-29 18:00:00,
2013-10-29 14:05:00,43.5,25.1,30.42,North,9,0.0,3.0,48,0.00,,,0.00,Wunderground v.1.15,2013-10-29 18:05:00,
2013-10-29 14:10:00,43.5,23.5,30.42,NE,36,1.0,6.0,45,0.00,,,0.00,Wunderground v.1.15,2013-10-29 18:10:00,
2013-10-29 14:15:00,44.1,23.0,30.41,NE,36,2.0,6.0,43,0.00,,,0.00,Wunderground v.1.15,2013-10-29 18:15:00,
2013-10-29 14:20:00,44.6,24.0,30.41,NE,36,0.0,2.0,44,0.00,,,0.00,Wunderground v.1.15,2013-10-29 18:20:00,
2013-10-29 14:25:00,45.5,24.8,30.41,NE,36,0.0,2.0,44,0.00,,,0.00,Wunderground v.1.15,2013-10-29 18:25:00,
2013-10-29 14:30:00,46.4,22.8,30.41,NE,34,0.0,1.0,39,0.00,,,0.00,Wunderground v.1.15,2013-10-29 18:30:00,
2013-10-29 14:35:00,47.0,23.9,30.41,NE,34,0.0,2.0,40,0.00,,,0.00,Wunderground v.1.15,2013-10-29 18:35:00,
2013-10-29 14:40:00,46.7,25.4,30.41,NNE,28,0.0,1.0,43,0.00,,,0.00,Wunderground v.1.15,2013-10-29 18:40:00,
2013-10-29 14:45:00,46.8,26.0,30.40,NNE,26,0.0,4.0,44,0.00,,,0.00,Wunderground v.1.15,2013-10-29 18:45:00,
2013-10-29 14:50:00,45.8,24.0,30.40,North,10,1.0,5.0,42,0.00,,,0.00,Wunderground v.1.15,2013-10-29 18:50:00,
2013-10-29 14:56:00,45.1,25.5,30.40,North,360,0.0,6.0,46,0.00,,,0.00,Wunderground v.1.15,2013-10-29 18:56:00,
2013-10-29 15:01:00,45.1,24.5,30.40,North,360,0.0,2.0,44,0.00,,,0.00,Wunderground v.1.15,2013-10-29 19:01:00,
2013-10-29 15:06:00,45.2,23.4,30.40,North,360,0.0,2.0,42,0.00,,,0.00,Wunderground v.1.15,2013-10-29 19:06:00,
2013-10-29 15:11:00,44.8,23.6,30.40,North,360,0.0,1.0,43,0.00,,,0.00,Wunderground v.1.15,2013-10-29 19:11:00,
2013-10-29 15:16:00,44.9,24.3,30.40,North,360,2.0,5.0,44,0.00,,,0.00,Wunderground v.1.15,2013-10-29 19:16:00,
2013-10-29 15:21:00,45.7,24.5,30.40,ENE,65,4.0,4.0,43,0.00,,,0.00,Wunderground v.1.15,2013-10-29 19:21:00,
2013-10-29 15:26:00,46.0,24.7,30.40,ENE,64,0.0,4.0,43,0.00,,,0.00,Wunderground v.1.15,2013-10-29 19:26:00,
2013-10-29 15:31:00,46.1,23.1,30.40,ENE,64,0.0,1.0,40,0.00,,,0.00,Wunderground v.1.15,2013-10-29 19:31:00,
2013-10-29 15:36:00,45.5,23.1,30.40,ENE,64,0.0,2.0,41,0.00,,,0.00,Wunderground v.1.15,2013-10-29 19:36:00,
2013-10-29 15:41:00,44.5,23.4,30.40,ENE,64,0.0,1.0,43,0.00,,,0.00,Wunderground v.1.15,2013-10-29 19:41:00,
2013-10-29 15:46:00,43.8,23.3,30.39,ENE,57,2.0,3.0,44,0.00,,,0.00,Wunderground v.1.15,2013-10-29 19:46:00,
2013-10-29 15:51:00,43.5,23.0,30.39,NE,44,3.0,3.0,44,0.00,,,0.00,Wunderground v.1.15,2013-10-29 19:51:00,
2013-10-29 15:56:00,43.5,22.5,30.39,NE,37,2.0,5.0,43,0.00,,,0.00,Wunderground v.1.15,2013-10-29 19:56:00,
2013-10-29 16:01:00,43.8,23.3,30.39,NE,37,0.0,2.0,44,0.00,,,0.00,Wunderground v.1.15,2013-10-29 20:01:00,
2013-10-29 16:06:00,44.6,22.9,30.39,NE,37,0.0,3.0,42,0.00,,,0.00,Wunderground v.1.15,2013-10-29 20:06:00,
2013-10-29 16:12:00,45.8,24.0,30.39,NE,37,0.0,0.0,42,0.00,,,0.00,Wunderground v.1.15,2013-10-29 20:12:00,
2013-10-29 16:17:00,46.5,24.6,30.37,NE,37,0.0,0.0,42,0.00,,,0.00,Wunderground v.1.15,2013-10-29 20:17:00,
2013-10-29 16:22:00,46.7,23.6,30.37,NE,37,0.0,1.0,40,0.00,,,0.00,Wunderground v.1.15,2013-10-29 20:22:00,
2013-10-29 16:28:00,45.4,23.6,30.37,NE,37,0.0,1.0,42,0.00,,,0.00,Wunderground v.1.15,2013-10-29 20:28:00,
2013-10-29 16:33:00,44.5,22.8,30.38,NE,37,0.0,0.0,42,0.00,,,0.00,Wunderground v.1.15,2013-10-29 20:33:00,
2013-10-29 16:38:00,44.6,23.5,30.38,NE,37,0.0,1.0,43,0.00,,,0.00,Wunderground v.1.15,2013-10-29 20:38:00,
2013-10-29 16:43:00,45.4,25.3,30.38,NE,37,0.0,0.0,45,0.00,,,0.00,Wunderground v.1.15,2013-10-29 20:43:00,
2013-10-29 16:48:00,46.0,25.8,30.37,NE,37,0.0,1.0,45,0.00,,,0.00,Wunderground v.1.15,2013-10-29 20:48:00,
2013-10-29 16:53:00,45.8,25.6,30.37,NE,37,0.0,2.0,45,0.00,,,0.00,Wunderground v.1.15,2013-10-29 20:53:00,
2013-10-29 16:58:00,45.4,25.3,30.37,NE,37,0.0,2.0,45,0.00,,,0.00,Wunderground v.1.15,2013-10-29 20:58:00,
2013-10-29 17:04:00,44.9,26.4,30.37,NE,37,0.0,1.0,48,0.00,,,0.00,Wunderground v.1.15,2013-10-29 21:04:00,
2013-10-29 17:09:00,45.1,26.6,30.37,NE,37,0.0,1.0,48,0.00,,,0.00,Wunderground v.1.15,2013-10-29 21:09:00,
2013-10-29 17:14:00,45.4,26.3,30.37,NE,37,0.0,3.0,47,0.00,,,0.00,Wunderground v.1.15,2013-10-29 21:14:00,
2013-10-29 17:19:00,44.9,26.4,30.37,NE,37,0.0,3.0,48,0.00,,,0.00,Wunderground v.1.15,2013-10-29 21:19:00,
2013-10-29 17:24:00,44.2,27.2,30.37,NE,36,1.0,4.0,51,0.00,,,0.00,Wunderground v.1.15,2013-10-29 21:24:00,
2013-10-29 17:29:00,43.5,27.9,30.38,NE,36,0.0,4.0,54,0.00,,,0.00,Wunderground v.1.15,2013-10-29 21:29:00,
2013-10-29 17:34:00,42.8,27.3,30.38,NE,36,0.0,1.0,54,0.00,,,0.00,Wunderground v.1.15,2013-10-29 21:34:00,
2013-10-29 17:39:00,42.1,27.1,30.38,NE,36,0.0,1.0,55,0.00,,,0.00,Wunderground v.1.15,2013-10-29 21:39:00,
2013-10-29 17:44:00,41.1,26.1,30.38,NE,36,0.0,0.0,55,0.00,,,0.00,Wunderground v.1.15,2013-10-29 21:44:00,
2013-10-29 17:49:00,40.3,25.8,30.38,NE,36,0.0,0.0,56,0.00,,,0.00,Wunderground v.1.15,2013-10-29 21:49:00,
2013-10-29 17:54:00,39.8,25.8,30.38,NE,36,0.0,1.0,57,0.00,,,0.00,Wunderground v.1.15,2013-10-29 21:54:00,
2013-10-29 17:59:00,39.3,25.7,30.39,NE,36,0.0,1.0,58,0.00,,,0.00,Wunderground v.1.15,2013-10-29 21:59:00,
2013-10-29 18:04:00,38.9,25.8,30.39,NE,36,0.0,1.0,59,0.00,,,0.00,Wunderground v.1.15,2013-10-29 22:04:00,
2013-10-29 18:09:00,38.6,25.9,30.39,NE,36,0.0,1.0,60,0.00,,,0.00,Wunderground v.1.15,2013-10-29 22:09:00,
2013-10-29 18:14:00,38.2,25.5,30.39,NE,36,0.0,1.0,60,0.00,,,0.00,Wunderground v.1.15,2013-10-29 22:14:00,
2013-10-29 18:20:00,37.9,25.2,30.39,NE,36,0.0,0.0,60,0.00,,,0.00,Wunderground v.1.15,2013-10-29 22:20:00,
2013-10-29 18:25:00,37.8,25.5,30.39,NE,36,1.0,1.0,61,0.00,,,0.00,Wunderground v.1.15,2013-10-29 22:25:00,
2013-10-29 18:30:00,37.5,25.3,30.39,NE,36,0.0,0.0,61,0.00,,,0.00,Wunderground v.1.15,2013-10-29 22:30:00,
2013-10-29 18:35:00,37.2,25.0,30.39,NE,36,0.0,1.0,61,0.00,,,0.00,Wunderground v.1.15,2013-10-29 22:35:00,
2013-10-29 18:40:00,37.0,25.2,30.39,NE,36,0.0,0.0,62,0.00,,,0.00,Wunderground v.1.15,2013-10-29 22:40:00,
2013-10-29 18:45:00,36.6,25.6,30.39,NE,36,0.0,0.0,64,0.00,,,0.00,Wunderground v.1.15,2013-10-29 22:45:00,
2013-10-29 18:50:00,36.3,25.3,30.39,NE,36,0.0,0.0,64,0.00,,,0.00,Wunderground v.1.15,2013-10-29 22:50:00,
2013-10-29 18:55:00,36.2,25.6,30.39,NE,36,0.0,0.0,65,0.00,,,0.00,Wunderground v.1.15,2013-10-29 22:55:00,
2013-10-29 19:00:00,36.2,25.9,30.40,NE,36,0.0,0.0,66,0.00,,,0.00,Wunderground v.1.15,2013-10-29 23:00:00,
2013-10-29 19:05:00,36.0,25.7,30.40,NE,36,0.0,0.0,66,0.00,,,0.00,Wunderground v.1.15,2013-10-29 23:05:00,
2013-10-29 19:10:00,35.8,25.5,30.40,NE,36,0.0,0.0,66,0.00,,,0.00,Wunderground v.1.15,2013-10-29 23:10:00,
2013-10-29 19:15:00,35.3,25.4,30.40,NE,36,0.0,0.0,67,0.00,,,0.00,Wunderground v.1.15,2013-10-29 23:15:00,
2013-10-29 19:20:00,35.0,25.5,30.40,NE,36,0.0,0.0,68,0.00,,,0.00,Wunderground v.1.15,2013-10-29 23:20:00,
2013-10-29 19:25:00,34.7,25.2,30.40,NE,36,0.0,0.0,68,0.00,,,0.00,Wunderground v.1.15,2013-10-29 23:25:00,
2013-10-29 19:30:00,34.4,24.9,30.40,NE,36,0.0,0.0,68,0.00,,,0.00,Wunderground v.1.15,2013-10-29 23:30:00,
2013-10-29 19:35:00,34.1,25.0,30.40,NE,36,0.0,0.0,69,0.00,,,0.00,Wunderground v.1.15,2013-10-29 23:35:00,
2013-10-29 19:40:00,33.8,24.7,30.40,NE,36,0.0,0.0,69,0.00,,,0.00,Wunderground v.1.15,2013-10-29 23:40:00,
2013-10-29 19:45:00,33.5,24.8,30.40,NE,36,0.0,0.0,70,0.00,,,0.00,Wunderground v.1.15,2013-10-29 23:45:00,
2013-10-29 19:50:00,33.4,25.0,30.40,NE,36,0.0,0.0,71,0.00,,,0.00,Wunderground v.1.15,2013-10-29 23:50:00,
2013-10-29 19:55:00,33.1,25.1,30.40,NE,36,0.0,0.0,72,0.00,,,0.00,Wunderground v.1.15,2013-10-29 23:55:00,
2013-10-29 20:00:00,32.9,24.9,30.39,NE,36,0.0,0.0,72,0.00,,,0.00,Wunderground v.1.15,2013-10-30 00:00:00,
2013-10-29 20:05:00,32.7,24.7,30.39,NE,36,0.0,0.0,72,0.00,,,0.00,Wunderground v.1.15,2013-10-30 00:05:00,
2013-10-29 20:10:00,32.4,25.0,30.39,NE,36,0.0,0.0,74,0.00,,,0.00,Wunderground v.1.15,2013-10-30 00:10:00,
2013-10-29 20:15:00,32.1,24.7,30.39,NE,36,0.0,0.0,74,0.00,,,0.00,Wunderground v.1.15,2013-10-30 00:15:00,
2013-10-29 20:20:00,32.1,24.7,30.39,NE,36,0.0,0.0,74,0.00,,,0.00,Wunderground v.1.15,2013-10-30 00:20:00,
2013-10-29 20:25:00,31.8,24.5,30.39,NE,36,0.0,1.0,74,0.00,,,0.00,Wunderground v.1.15,2013-10-30 00:25:00,
2013-10-29 20:30:00,31.6,24.3,30.39,NE,36,0.0,0.0,74,0.00,,,0.00,Wunderground v.1.15,2013-10-30 00:30:00,
2013-10-29 20:35:00,31.2,24.2,30.39,NE,36,0.0,0.0,75,0.00,,,0.00,Wunderground v.1.15,2013-10-30 00:35:00,
2013-10-29 20:40:00,31.0,24.3,30.39,NE,36,0.0,1.0,76,0.00,,,0.00,Wunderground v.1.15,2013-10-30 00:40:00,
2013-10-29 20:45:00,30.9,24.2,30.38,NE,36,0.0,1.0,76,0.00,,,0.00,Wunderground v.1.15,2013-10-30 00:45:00,
2013-10-29 20:50:00,30.7,24.3,30.38,NE,36,0.0,0.0,77,0.00,,,0.00,Wunderground v.1.15,2013-10-30 00:50:00,
2013-10-29 20:55:00,30.6,24.2,30.38,NE,36,0.0,0.0,77,0.00,,,0.00,Wunderground v.1.15,2013-10-30 00:55:00,
2013-10-29 21:00:00,30.6,24.2,30.37,NE,36,0.0,0.0,77,0.00,,,0.00,Wunderground v.1.15,2013-10-30 01:00:00,
2013-10-29 21:05:00,30.4,24.1,30.37,NE,36,0.0,0.0,77,0.00,,,0.00,Wunderground v.1.15,2013-10-30 01:05:00,
2013-10-29 21:10:00,30.3,24.3,30.37,NE,36,0.0,0.0,78,0.00,,,0.00,Wunderground v.1.15,2013-10-30 01:10:00,
2013-10-29 21:16:00,30.4,24.4,30.37,NE,36,2.0,3.0,78,0.00,,,0.00,Wunderground v.1.15,2013-10-30 01:16:00,
2013-10-29 21:21:00,31.0,24.3,30.37,NE,56,4.0,5.0,76,0.00,,,0.00,Wunderground v.1.15,2013-10-30 01:21:00,
2013-10-29 21:26:00,31.5,24.2,30.37,ENE,59,2.0,6.0,74,0.00,,,0.00,Wunderground v.1.15,2013-10-30 01:26:00,
2013-10-29 21:31:00,31.6,23.9,30.36,ENE,59,3.0,3.0,73,0.00,,,0.00,Wunderground v.1.15,2013-10-30 01:31:00,
2013-10-29 21:36:00,31.9,23.9,30.36,ENE,61,0.0,4.0,72,0.00,,,0.00,Wunderground v.1.15,2013-10-30 01:36:00,
2013-10-29 21:41:00,32.1,23.8,30.36,ENE,61,0.0,1.0,71,0.00,,,0.00,Wunderground v.1.15,2013-10-30 01:41:00,
2013-10-29 21:46:00,31.8,23.5,30.36,ENE,61,0.0,1.0,71,0.00,,,0.00,Wunderground v.1.15,2013-10-30 01:46:00,
2013-10-29 21:51:00,31.5,23.5,30.36,ENE,61,0.0,0.0,72,0.00,,,0.00,Wunderground v.1.15,2013-10-30 01:51:00,
2013-10-29 21:56:00,31.0,24.0,30.36,ENE,61,0.0,1.0,75,0.00,,,0.00,Wunderground v.1.15,2013-10-30 01:56:00,
2013-10-29 22:01:00,30.6,24.2,30.36,ENE,61,0.0,0.0,77,0.00,,,0.00,Wunderground v.1.15,2013-10-30 02:01:00,
2013-10-29 22:06:00,30.3,24.0,30.36,ENE,61,0.0,1.0,77,0.00,,,0.00,Wunderground v.1.15,2013-10-30 02:06:00,
2013-10-29 22:11:00,30.0,23.7,30.36,ENE,61,0.0,0.0,77,0.00,,,0.00,Wunderground v.1.15,2013-10-30 02:11:00,
2013-10-29 22:16:00,29.8,23.5,30.37,ENE,61,0.0,0.0,77,0.00,,,0.00,Wunderground v.1.15,2013-10-30 02:16:00,
2013-10-29 22:21:00,29.8,23.8,30.37,ENE,61,0.0,0.0,78,0.00,,,0.00,Wunderground v.1.15,2013-10-30 02:21:00,
2013-10-29 22:26:00,29.7,24.0,30.37,ENE,61,0.0,0.0,79,0.00,,,0.00,Wunderground v.1.15,2013-10-30 02:26:00,
2013-10-29 22:31:00,29.7,24.3,30.36,ENE,61,0.0,0.0,80,0.00,,,0.00,Wunderground v.1.15,2013-10-30 02:31:00,
2013-10-29 22:36:00,29.5,24.1,30.36,ENE,61,0.0,0.0,80,0.00,,,0.00,Wunderground v.1.15,2013-10-30 02:36:00,
2013-10-29 22:41:00,29.5,24.4,30.36,ENE,61,0.0,0.0,81,0.00,,,0.00,Wunderground v.1.15,2013-10-30 02:41:00,
2013-10-29 22:46:00,29.5,24.1,30.36,ENE,61,0.0,1.0,80,0.00,,,0.00,Wunderground v.1.15,2013-10-30 02:46:00,
2013-10-29 22:51:00,29.7,24.3,30.36,ENE,61,0.0,0.0,80,0.00,,,0.00,Wunderground v.1.15,2013-10-30 02:51:00,
2013-10-29 22:56:00,30.0,24.3,30.36,ENE,61,0.0,1.0,79,0.00,,,0.00,Wunderground v.1.15,2013-10-30 02:56:00,
2013-10-29 23:01:00,30.3,24.6,30.35,ENE,61,0.0,0.0,79,0.00,,,0.00,Wunderground v.1.15,2013-10-30 03:01:00,
2013-10-29 23:06:00,30.4,24.4,30.35,ENE,61,0.0,0.0,78,0.00,,,0.00,Wunderground v.1.15,2013-10-30 03:06:00,
2013-10-29 23:11:00,30.4,24.1,30.35,ENE,61,0.0,0.0,77,0.00,,,0.00,Wunderground v.1.15,2013-10-30 03:11:00,
2013-10-29 23:16:00,30.3,24.3,30.35,ENE,61,0.0,0.0,78,0.00,,,0.00,Wunderground v.1.15,2013-10-30 03:16:00,
2013-10-29 23:21:00,30.3,24.3,30.35,ENE,61,0.0,1.0,78,0.00,,,0.00,Wunderground v.1.15,2013-10-30 03:21:00,
2013-10-29 23:27:00,30.6,23.9,30.35,ENE,61,0.0,2.0,76,0.00,,,0.00,Wunderground v.1.15,2013-10-30 03:27:00,
2013-10-29 23:32:00,31.0,24.0,30.35,ENE,61,0.0,3.0,75,0.00,,,0.00,Wunderground v.1.15,2013-10-30 03:32:00,
2013-10-29 23:37:00,31.3,24.0,30.35,ENE,61,0.0,3.0,74,0.00,,,0.00,Wunderground v.1.15,2013-10-30 03:37:00,
2013-10-29 23:42:00,31.3,24.0,30.35,ENE,61,0.0,0.0,74,0.00,,,0.00,Wunderground v.1.15,2013-10-30 03:42:00,
2013-10-29 23:47:00,31.2,23.9,30.34,ENE,61,0.0,0.0,74,0.00,,,0.00,Wunderground v.1.15,2013-10-30 03:47:00,
2013-10-29 23:52:00,31.2,23.9,30.34,ENE,61,2.0,3.0,74,0.00,,,0.00,Wunderground v.1.15,2013-10-30 03:52:00,
2013-10-29 23:57:00,31.3,23.6,30.34,ENE,62,0.0,4.0,73,0.00,,,0.00,Wunderground v.1.15,2013-10-30 03:57:00,